sensor_id;sensor_type;location;lat;lon;timestamp;P1;durP1;ratioP1;P2;durP2;ratioP2
34146;SDS011;20423;49.448;9.056;2023-07-29T00:00:14;3.9;;;3.7;;
34146;SDS011;20423;49.448;9.056;2023-07-29T00:05:58;4;;;3.4;;
34146;SDS011;20423;49.448;9.056;2023-07-29T00:10:58;4.8;;;3.9;;
34146;SDS011;20423;49.448;9.056;2023-07-29T00:15:14;3.4;;;3;;
34146;SDS011;20423;49.448;9.056;2023-07-29T00:20:13;3.7;;;3.4;;
34146;SDS011;20423;49.448;9.056;2023-07-29T00:25:48;3.6;;;3.3;;
34146;SDS011;20423;49.448;9.056;2023-07-29T00:30:48;3.8;;;3.4;;
34146;SDS011;20423;49.448;9.056;2023-07-29T00:35:14;4;;;3.4;;
34146;SDS011;20423;49.448;9.056;2023-07-29T00:40:15;4.4;;;3.6;;
34146;SDS011;20423;49.448;9.056;2023-07-29T00:45:56;4.1;;;3.7;;
34146;SDS011;20423;49.448;9.056;2023-07-29T00:50:18;4.9;;;4;;
34146;SDS011;20423;49.448;9.056;2023-07-29T00:55:42;4.1;;;3.7;;
34146;SDS011;20423;49.448;9.056;2023-07-29T01:00:58;4.5;;;3.8;;
34146;SDS011;20423;49.448;9.056;2023-07-29T01:05:16;5.1;;;4.2;;
34146;SDS011;20423;49.448;9.056;2023-07-29T01:10:34;4;;;3.9;;
34146;SDS011;20423;49.448;9.056;2023-07-29T01:15:43;4.6;;;4.1;;
34146;SDS011;20423;49.448;9.056;2023-07-29T01:20:14;4.7;;;3.8;;
34146;SDS011;20423;49.448;9.056;2023-07-29T01:25:32;5.1;;;4.1;;
34146;SDS011;20423;49.448;9.056;2023-07-29T01:30:14;4.4;;;4;;
34146;SDS011;20423;49.448;9.056;2023-07-29T01:35:58;5.2;;;4.6;;
34146;SDS011;20423;49.448;9.056;2023-07-29T01:40:24;5.2;;;4.5;;
34146;SDS011;20423;49.448;9.056;2023-07-29T01:45:58;4;;;3.5;;
34146;SDS011;20423;49.448;9.056;2023-07-29T01:50:14;5.6;;;3.9;;
34146;SDS011;20423;49.448;9.056;2023-07-29T01:55:22;4.7;;;4.2;;
34146;SDS011;20423;49.448;9.056;2023-07-29T02:00:32;4.2;;;3.6;;
34146;SDS011;20423;49.448;9.056;2023-07-29T02:05:32;4.8;;;3.7;;
34146;SDS011;20423;49.448;9.056;2023-07-29T02:10:18;4.4;;;4;;
34146;SDS011;20423;49.448;9.056;2023-07-29T02:15:42;4.4;;;4.1;;
34146;SDS011;20423;49.448;9.056;2023-07-29T02:20:42;4.6;;;4.1;;
34146;SDS011;20423;49.448;9.056;2023-07-29T02:25:26;5.5;;;4.6;;
34146;SDS011;20423;49.448;9.056;2023-07-29T02:30:26;5.7;;;4.4;;
34146;SDS011;20423;49.448;9.056;2023-07-29T02:35:58;5.2;;;4.4;;
34146;SDS011;20423;49.448;9.056;2023-07-29T02:40:44;5.1;;;4.5;;
34146;SDS011;20423;49.448;9.056;2023-07-29T02:45:32;5.4;;;4.7;;
34146;SDS011;20423;49.448;9.056;2023-07-29T02:50:28;4.8;;;3.9;;
34146;SDS011;20423;49.448;9.056;2023-07-29T02:55:58;4.7;;;4.1;;
34146;SDS011;20423;49.448;9.056;2023-07-29T03:00:18;4.6;;;4.1;;
34146;SDS011;20423;49.448;9.056;2023-07-29T03:05:14;5.6;;;4.5;;
34146;SDS011;20423;49.448;9.056;2023-07-29T03:10:42;4.5;;;3.8;;
34146;SDS011;20423;49.448;9.056;2023-07-29T03:15:42;5.3;;;4.4;;
34146;SDS011;20423;49.448;9.056;2023-07-29T03:20:46;5.4;;;4.6;;
34146;SDS011;20423;49.448;9.056;2023-07-29T03:25:42;5.5;;;5;;
34146;SDS011;20423;49.448;9.056;2023-07-29T03:30:58;5.8;;;5.4;;
34146;SDS011;20423;49.448;9.056;2023-07-29T03:35:14;7;;;6.2;;
34146;SDS011;20423;49.448;9.056;2023-07-29T03:40:58;6.3;;;5.2;;
34146;SDS011;20423;49.448;9.056;2023-07-29T03:45:32;5.7;;;5.2;;
34146;SDS011;20423;49.448;9.056;2023-07-29T03:50:58;6.3;;;5.5;;
34146;SDS011;20423;49.448;9.056;2023-07-29T03:55:48;6.4;;;5.5;;
34146;SDS011;20423;49.448;9.056;2023-07-29T04:00:42;7.4;;;6.2;;
34146;SDS011;20423;49.448;9.056;2023-07-29T04:05:28;8.8;;;7.8;;
34146;SDS011;20423;49.448;9.056;2023-07-29T04:10:18;7.9;;;6.8;;
34146;SDS011;20423;49.448;9.056;2023-07-29T04:15:58;7.2;;;5.9;;
34146;SDS011;20423;49.448;9.056;2023-07-29T04:20:32;8.9;;;6.8;;
34146;SDS011;20423;49.448;9.056;2023-07-29T04:25:54;8.2;;;7.1;;
34146;SDS011;20423;49.448;9.056;2023-07-29T04:30:58;9.4;;;8.3;;
34146;SDS011;20423;49.448;9.056;2023-07-29T04:35:58;8;;;7.2;;
34146;SDS011;20423;49.448;9.056;2023-07-29T04:40:44;8.7;;;7.8;;
34146;SDS011;20423;49.448;9.056;2023-07-29T04:45:14;7.8;;;7.2;;
34146;SDS011;20423;49.448;9.056;2023-07-29T04:50:48;6.5;;;5.9;;
34146;SDS011;20423;49.448;9.056;2023-07-29T04:55:48;8.7;;;6.5;;
34146;SDS011;20423;49.448;9.056;2023-07-29T05:00:32;7.3;;;6.5;;
34146;SDS011;20423;49.448;9.056;2023-07-29T05:05:26;8.4;;;7.4;;
34146;SDS011;20423;49.448;9.056;2023-07-29T05:10:58;8.9;;;7.9;;
34146;SDS011;20423;49.448;9.056;2023-07-29T05:15:32;6.5;;;5.7;;
34146;SDS011;20423;49.448;9.056;2023-07-29T05:20:32;9.8;;;8.1;;
34146;SDS011;20423;49.448;9.056;2023-07-29T05:25:32;8.8;;;7.5;;
34146;SDS011;20423;49.448;9.056;2023-07-29T05:30:46;8;;;6.6;;
34146;SDS011;20423;49.448;9.056;2023-07-29T05:35:32;11.2;;;9.9;;
34146;SDS011;20423;49.448;9.056;2023-07-29T05:40:18;10.2;;;9;;
34146;SDS011;20423;49.448;9.056;2023-07-29T05:45:36;11.2;;;10.1;;
34146;SDS011;20423;49.448;9.056;2023-07-29T05:50:14;8.8;;;8.3;;
34146;SDS011;20423;49.448;9.056;2023-07-29T05:55:42;7.7;;;6.5;;
34146;SDS011;20423;49.448;9.056;2023-07-29T06:00:58;7.3;;;6.3;;
34146;SDS011;20423;49.448;9.056;2023-07-29T06:05:16;7.1;;;5.8;;
34146;SDS011;20423;49.448;9.056;2023-07-29T06:10:58;7.8;;;6.6;;
34146;SDS011;20423;49.448;9.056;2023-07-29T06:15:42;6.2;;;6;;
34146;SDS011;20423;49.448;9.056;2023-07-29T06:20:14;8.5;;;7;;
34146;SDS011;20423;49.448;9.056;2023-07-29T06:25:30;7.3;;;6.7;;
34146;SDS011;20423;49.448;9.056;2023-07-29T06:30:38;8.1;;;7.7;;
34146;SDS011;20423;49.448;9.056;2023-07-29T06:35:18;8.3;;;7.2;;
34146;SDS011;20423;49.448;9.056;2023-07-29T06:40:42;9;;;7.3;;
34146;SDS011;20423;49.448;9.056;2023-07-29T06:45:42;7.7;;;6.3;;
34146;SDS011;20423;49.448;9.056;2023-07-29T06:50:48;6.9;;;6.1;;
34146;SDS011;20423;49.448;9.056;2023-07-29T06:55:14;8.3;;;7.3;;
34146;SDS011;20423;49.448;9.056;2023-07-29T07:00:20;7.1;;;6.2;;
34146;SDS011;20423;49.448;9.056;2023-07-29T07:05:48;7.5;;;6.6;;
34146;SDS011;20423;49.448;9.056;2023-07-29T07:10:58;7.8;;;6.9;;
34146;SDS011;20423;49.448;9.056;2023-07-29T07:15:14;7.2;;;6.9;;
34146;SDS011;20423;49.448;9.056;2023-07-29T07:20:58;6.8;;;6.2;;
34146;SDS011;20423;49.448;9.056;2023-07-29T07:25:28;6.2;;;5.6;;
34146;SDS011;20423;49.448;9.056;2023-07-29T07:30:18;6.6;;;5.4;;
34146;SDS011;20423;49.448;9.056;2023-07-29T07:35:34;7.4;;;6.3;;
34146;SDS011;20423;49.448;9.056;2023-07-29T07:40:24;7.9;;;6.7;;
34146;SDS011;20423;49.448;9.056;2023-07-29T07:45:48;7;;;6.5;;
34146;SDS011;20423;49.448;9.056;2023-07-29T07:50:34;8.6;;;6.8;;
34146;SDS011;20423;49.448;9.056;2023-07-29T07:55:58;6.6;;;6.1;;
34146;SDS011;20423;49.448;9.056;2023-07-29T08:00:14;7.1;;;6.2;;
34146;SDS011;20423;49.448;9.056;2023-07-29T08:05:58;6.5;;;5.8;;
34146;SDS011;20423;49.448;9.056;2023-07-29T08:10:28;8.7;;;7.5;;
34146;SDS011;20423;49.448;9.056;2023-07-29T08:15:58;7.9;;;7.4;;
34146;SDS011;20423;49.448;9.056;2023-07-29T08:20:58;8.8;;;7.4;;
34146;SDS011;20423;49.448;9.056;2023-07-29T08:25:42;10.1;;;8.9;;
34146;SDS011;20423;49.448;9.056;2023-07-29T08:30:48;12.1;;;10.7;;
34146;SDS011;20423;49.448;9.056;2023-07-29T08:35:14;9.8;;;8.8;;
34146;SDS011;20423;49.448;9.056;2023-07-29T08:40:58;10;;;8.6;;
34146;SDS011;20423;49.448;9.056;2023-07-29T08:45:18;9.9;;;9;;
34146;SDS011;20423;49.448;9.056;2023-07-29T08:50:32;17.5;;;15.3;;
34146;SDS011;20423;49.448;9.056;2023-07-29T08:55:58;12.1;;;10;;
34146;SDS011;20423;49.448;9.056;2023-07-29T09:00:58;9.3;;;8.8;;
34146;SDS011;20423;49.448;9.056;2023-07-29T09:05:28;10.1;;;8.6;;
34146;SDS011;20423;49.448;9.056;2023-07-29T09:10:14;8.1;;;7.3;;
34146;SDS011;20423;49.448;9.056;2023-07-29T09:15:48;6.8;;;6.3;;
34146;SDS011;20423;49.448;9.056;2023-07-29T09:20:48;6.7;;;6.1;;
34146;SDS011;20423;49.448;9.056;2023-07-29T09:25:29;7.6;;;6.7;;
34146;SDS011;20423;49.448;9.056;2023-07-29T09:30:18;9.2;;;8.2;;
34146;SDS011;20423;49.448;9.056;2023-07-29T09:35:58;9.1;;;8.4;;
34146;SDS011;20423;49.448;9.056;2023-07-29T09:40:14;16.3;;;14.4;;
34146;SDS011;20423;49.448;9.056;2023-07-29T09:45:33;22.8;;;20.5;;
34146;SDS011;20423;49.448;9.056;2023-07-29T09:50:58;17.8;;;15.6;;
34146;SDS011;20423;49.448;9.056;2023-07-29T09:55:48;22.3;;;19.8;;
34146;SDS011;20423;49.448;9.056;2023-07-29T10:00:44;30.3;;;25.3;;
34146;SDS011;20423;49.448;9.056;2023-07-29T10:05:14;27;;;22.2;;
34146;SDS011;20423;49.448;9.056;2023-07-29T10:10:19;16.1;;;14.3;;
34146;SDS011;20423;49.448;9.056;2023-07-29T10:15:18;12.8;;;11.1;;
34146;SDS011;20423;49.448;9.056;2023-07-29T10:20:28;8.7;;;7.6;;
34146;SDS011;20423;49.448;9.056;2023-07-29T10:25:18;8.1;;;7;;
34146;SDS011;20423;49.448;9.056;2023-07-29T10:30:42;5.2;;;5;;
34146;SDS011;20423;49.448;9.056;2023-07-29T10:35:58;8.6;;;7.6;;
34146;SDS011;20423;49.448;9.056;2023-07-29T10:40:26;6.9;;;6.1;;
34146;SDS011;20423;49.448;9.056;2023-07-29T10:45:18;7.2;;;6;;
34146;SDS011;20423;49.448;9.056;2023-07-29T10:50:18;10.6;;;9.3;;
34146;SDS011;20423;49.448;9.056;2023-07-29T10:55:32;11.2;;;9.3;;
34146;SDS011;20423;49.448;9.056;2023-07-29T11:00:32;7.9;;;6.7;;
34146;SDS011;20423;49.448;9.056;2023-07-29T11:05:44;17.2;;;14;;
34146;SDS011;20423;49.448;9.056;2023-07-29T11:10:42;7.1;;;6.4;;
34146;SDS011;20423;49.448;9.056;2023-07-29T11:15:27;7.6;;;6.7;;
34146;SDS011;20423;49.448;9.056;2023-07-29T11:20:42;5.5;;;4.5;;
34146;SDS011;20423;49.448;9.056;2023-07-29T11:25:58;5.3;;;4.7;;
34146;SDS011;20423;49.448;9.056;2023-07-29T11:30:58;9.5;;;8.2;;
34146;SDS011;20423;49.448;9.056;2023-07-29T11:35:28;7.2;;;6;;
34146;SDS011;20423;49.448;9.056;2023-07-29T11:40:42;8.5;;;7.6;;
34146;SDS011;20423;49.448;9.056;2023-07-29T11:45:58;9.6;;;8.4;;
34146;SDS011;20423;49.448;9.056;2023-07-29T11:50:14;10.4;;;9.2;;
34146;SDS011;20423;49.448;9.056;2023-07-29T11:55:18;4.5;;;3.6;;
34146;SDS011;20423;49.448;9.056;2023-07-29T12:00:42;6.3;;;5.5;;
34146;SDS011;20423;49.448;9.056;2023-07-29T12:05:58;3.9;;;3.5;;
34146;SDS011;20423;49.448;9.056;2023-07-29T12:10:58;4.8;;;4.3;;
34146;SDS011;20423;49.448;9.056;2023-07-29T12:15:22;5.6;;;4.6;;
34146;SDS011;20423;49.448;9.056;2023-07-29T12:20:42;4.4;;;3.4;;
34146;SDS011;20423;49.448;9.056;2023-07-29T12:25:14;3.9;;;3.2;;
34146;SDS011;20423;49.448;9.056;2023-07-29T12:30:20;6.8;;;5.8;;
34146;SDS011;20423;49.448;9.056;2023-07-29T12:35:42;3.6;;;3.4;;
34146;SDS011;20423;49.448;9.056;2023-07-29T12:40:58;3.2;;;2.4;;
34146;SDS011;20423;49.448;9.056;2023-07-29T12:45:46;2.6;;;2.2;;
34146;SDS011;20423;49.448;9.056;2023-07-29T12:50:42;2.5;;;2.2;;
34146;SDS011;20423;49.448;9.056;2023-07-29T12:55:58;3.1;;;2.4;;
34146;SDS011;20423;49.448;9.056;2023-07-29T13:00:14;2.5;;;2.4;;
34146;SDS011;20423;49.448;9.056;2023-07-29T13:05:58;2.7;;;2.4;;
34146;SDS011;20423;49.448;9.056;2023-07-29T13:10:32;2.8;;;2.4;;
34146;SDS011;20423;49.448;9.056;2023-07-29T13:15:58;6.3;;;5.4;;
34146;SDS011;20423;49.448;9.056;2023-07-29T13:20:34;7.2;;;6.2;;
34146;SDS011;20423;49.448;9.056;2023-07-29T13:25:40;5.6;;;5.1;;
34146;SDS011;20423;49.448;9.056;2023-07-29T13:30:48;4.8;;;4.6;;
34146;SDS011;20423;49.448;9.056;2023-07-29T13:35:14;6.5;;;5.6;;
34146;SDS011;20423;49.448;9.056;2023-07-29T13:40:58;4.9;;;4.4;;
34146;SDS011;20423;49.448;9.056;2023-07-29T13:45:14;5.3;;;4.6;;
34146;SDS011;20423;49.448;9.056;2023-07-29T13:50:28;11.1;;;9;;
34146;SDS011;20423;49.448;9.056;2023-07-29T13:55:58;5.5;;;4.2;;
34146;SDS011;20423;49.448;9.056;2023-07-29T14:00:58;4.8;;;3.6;;
34146;SDS011;20423;49.448;9.056;2023-07-29T14:05:14;4.4;;;3.5;;
34146;SDS011;20423;49.448;9.056;2023-07-29T14:10:14;4;;;3.2;;
34146;SDS011;20423;49.448;9.056;2023-07-29T14:15:48;3.3;;;2.9;;
34146;SDS011;20423;49.448;9.056;2023-07-29T14:20:48;4.2;;;3.1;;
34146;SDS011;20423;49.448;9.056;2023-07-29T14:25:32;4.8;;;4;;
34146;SDS011;20423;49.448;9.056;2023-07-29T14:30:18;6.9;;;6.5;;
34146;SDS011;20423;49.448;9.056;2023-07-29T14:35:14;5;;;4.7;;
34146;SDS011;20423;49.448;9.056;2023-07-29T14:40:18;4.1;;;3.3;;
34146;SDS011;20423;49.448;9.056;2023-07-29T14:45:14;3.8;;;3.1;;
34146;SDS011;20423;49.448;9.056;2023-07-29T14:50:58;4.4;;;3.8;;
34146;SDS011;20423;49.448;9.056;2023-07-29T14:55:34;3.7;;;2.7;;
34146;SDS011;20423;49.448;9.056;2023-07-29T15:00:50;2;;;1.8;;
34146;SDS011;20423;49.448;9.056;2023-07-29T15:05:40;1.7;;;1.6;;
34146;SDS011;20423;49.448;9.056;2023-07-29T15:10:14;2.2;;;2.2;;
34146;SDS011;20423;49.448;9.056;2023-07-29T15:15:28;3;;;2.4;;
34146;SDS011;20423;49.448;9.056;2023-07-29T15:20:30;2.2;;;1.7;;
34146;SDS011;20423;49.448;9.056;2023-07-29T15:25:14;1.9;;;1.7;;
34146;SDS011;20423;49.448;9.056;2023-07-29T15:30:26;2.9;;;2.2;;
34146;SDS011;20423;49.448;9.056;2023-07-29T15:35:40;3.7;;;3.1;;
34146;SDS011;20423;49.448;9.056;2023-07-29T15:40:24;2.8;;;2.6;;
34146;SDS011;20423;49.448;9.056;2023-07-29T15:45:14;4.1;;;3.8;;
34146;SDS011;20423;49.448;9.056;2023-07-29T15:50:56;6.2;;;5.4;;
34146;SDS011;20423;49.448;9.056;2023-07-29T15:55:42;2.5;;;2.4;;
34146;SDS011;20423;49.448;9.056;2023-07-29T16:00:30;2.4;;;2.3;;
34146;SDS011;20423;49.448;9.056;2023-07-29T16:05:56;2.7;;;2.3;;
34146;SDS011;20423;49.448;9.056;2023-07-29T16:10:40;2.5;;;2.2;;
34146;SDS011;20423;49.448;9.056;2023-07-29T16:15:14;2.1;;;2;;
34146;SDS011;20423;49.448;9.056;2023-07-29T16:20:16;2.8;;;2.1;;
34146;SDS011;20423;49.448;9.056;2023-07-29T16:25:40;2.6;;;2;;
34146;SDS011;20423;49.448;9.056;2023-07-29T16:30:54;2.5;;;2;;
34146;SDS011;20423;49.448;9.056;2023-07-29T16:35:58;2.5;;;2.1;;
34146;SDS011;20423;49.448;9.056;2023-07-29T16:40:24;1.6;;;1.4;;
34146;SDS011;20423;49.448;9.056;2023-07-29T16:45:58;2.5;;;1.9;;
34146;SDS011;20423;49.448;9.056;2023-07-29T16:50:28;2.3;;;1.9;;
34146;SDS011;20423;49.448;9.056;2023-07-29T16:55:14;2.6;;;2.1;;
34146;SDS011;20423;49.448;9.056;2023-07-29T17:00:42;3;;;2.8;;
34146;SDS011;20423;49.448;9.056;2023-07-29T17:05:36;3.5;;;3;;
34146;SDS011;20423;49.448;9.056;2023-07-29T17:10:48;3.5;;;3.1;;
34146;SDS011;20423;49.448;9.056;2023-07-29T17:15:38;3.9;;;3.5;;
34146;SDS011;20423;49.448;9.056;2023-07-29T17:20:59;6;;;5.1;;
34146;SDS011;20423;49.448;9.056;2023-07-29T17:25:14;7.3;;;6.9;;
34146;SDS011;20423;49.448;9.056;2023-07-29T17:30:58;11;;;9.5;;
34146;SDS011;20423;49.448;9.056;2023-07-29T17:35:14;9.2;;;8.6;;
34146;SDS011;20423;49.448;9.056;2023-07-29T17:40:56;9;;;8;;
34146;SDS011;20423;49.448;9.056;2023-07-29T17:45:48;8.3;;;7.5;;
34146;SDS011;20423;49.448;9.056;2023-07-29T17:50:16;7.3;;;6.5;;
34146;SDS011;20423;49.448;9.056;2023-07-29T17:55:18;7.4;;;6.5;;
34146;SDS011;20423;49.448;9.056;2023-07-29T18:00:32;6.2;;;5.3;;
34146;SDS011;20423;49.448;9.056;2023-07-29T18:05:58;5.7;;;4.9;;
34146;SDS011;20423;49.448;9.056;2023-07-29T18:10:14;6.3;;;5.4;;
34146;SDS011;20423;49.448;9.056;2023-07-29T18:15:32;6.2;;;5.2;;
34146;SDS011;20423;49.448;9.056;2023-07-29T18:20:22;6.6;;;5.7;;
34146;SDS011;20423;49.448;9.056;2023-07-29T18:25:58;7;;;6.1;;
34146;SDS011;20423;49.448;9.056;2023-07-29T18:30:14;7.7;;;6.6;;
34146;SDS011;20423;49.448;9.056;2023-07-29T18:35:18;7.1;;;6.2;;
34146;SDS011;20423;49.448;9.056;2023-07-29T18:40:58;5.3;;;5;;
34146;SDS011;20423;49.448;9.056;2023-07-29T18:45:34;6.2;;;5.5;;
34146;SDS011;20423;49.448;9.056;2023-07-29T18:50:32;5.8;;;4.8;;
34146;SDS011;20423;49.448;9.056;2023-07-29T18:55:18;6.2;;;5.2;;
34146;SDS011;20423;49.448;9.056;2023-07-29T19:00:18;6.2;;;5.5;;
34146;SDS011;20423;49.448;9.056;2023-07-29T19:05:18;5.7;;;5.1;;
34146;SDS011;20423;49.448;9.056;2023-07-29T19:10:30;6.4;;;6.2;;
34146;SDS011;20423;49.448;9.056;2023-07-29T19:15:56;8.5;;;7.3;;
34146;SDS011;20423;49.448;9.056;2023-07-29T19:20:40;9.1;;;8.3;;
34146;SDS011;20423;49.448;9.056;2023-07-29T19:25:26;11.5;;;10.1;;
34146;SDS011;20423;49.448;9.056;2023-07-29T19:30:16;13.5;;;11.1;;
34146;SDS011;20423;49.448;9.056;2023-07-29T19:35:22;17;;;15.4;;
34146;SDS011;20423;49.448;9.056;2023-07-29T19:40:14;20.4;;;18.7;;
34146;SDS011;20423;49.448;9.056;2023-07-29T19:45:30;23.4;;;20.8;;
34146;SDS011;20423;49.448;9.056;2023-07-29T19:50:28;25.8;;;22.7;;
34146;SDS011;20423;49.448;9.056;2023-07-29T19:55:38;25.6;;;22;;
34146;SDS011;20423;49.448;9.056;2023-07-29T20:00:42;26.1;;;22.4;;
34146;SDS011;20423;49.448;9.056;2023-07-29T20:05:18;27.2;;;23.8;;
34146;SDS011;20423;49.448;9.056;2023-07-29T20:10:14;27.1;;;24;;
34146;SDS011;20423;49.448;9.056;2023-07-29T20:15:58;32.2;;;27.5;;
34146;SDS011;20423;49.448;9.056;2023-07-29T20:20:58;33.8;;;28.8;;
34146;SDS011;20423;49.448;9.056;2023-07-29T20:25:32;35.2;;;29.8;;
34146;SDS011;20423;49.448;9.056;2023-07-29T20:30:42;33.2;;;28.2;;
34146;SDS011;20423;49.448;9.056;2023-07-29T20:35:59;32.3;;;28.4;;
34146;SDS011;20423;49.448;9.056;2023-07-29T20:40:18;32.8;;;29.4;;
34146;SDS011;20423;49.448;9.056;2023-07-29T20:45:14;33.2;;;29.3;;
34146;SDS011;20423;49.448;9.056;2023-07-29T20:50:42;37.8;;;31.2;;
34146;SDS011;20423;49.448;9.056;2023-07-29T20:55:58;25.6;;;22.7;;
34146;SDS011;20423;49.448;9.056;2023-07-29T21:00:58;25.7;;;22.1;;
34146;SDS011;20423;49.448;9.056;2023-07-29T21:05:22;26.6;;;23.5;;
34146;SDS011;20423;49.448;9.056;2023-07-29T21:10:30;21.1;;;18.8;;
34146;SDS011;20423;49.448;9.056;2023-07-29T21:20:14;18.1;;;15.6;;
34146;SDS011;20423;49.448;9.056;2023-07-29T21:25:58;22.4;;;19.6;;
34146;SDS011;20423;49.448;9.056;2023-07-29T21:30:42;22.8;;;19.7;;
34146;SDS011;20423;49.448;9.056;2023-07-29T21:35:48;23.2;;;20.4;;
34146;SDS011;20423;49.448;9.056;2023-07-29T21:40:28;23;;;19.8;;
34146;SDS011;20423;49.448;9.056;2023-07-29T21:45:58;14.6;;;12.8;;
34146;SDS011;20423;49.448;9.056;2023-07-29T21:50:14;10.3;;;9.2;;
34146;SDS011;20423;49.448;9.056;2023-07-29T21:55:59;7.7;;;6.8;;
34146;SDS011;20423;49.448;9.056;2023-07-29T22:00:32;8;;;6.5;;
34146;SDS011;20423;49.448;9.056;2023-07-29T22:05:32;6.6;;;5.9;;
34146;SDS011;20423;49.448;9.056;2023-07-29T22:11:02;6.5;;;5.9;;
34146;SDS011;20423;49.448;9.056;2023-07-29T22:15:28;6.7;;;5.2;;
34146;SDS011;20423;49.448;9.056;2023-07-29T22:20:32;5.9;;;4.5;;
34146;SDS011;20423;49.448;9.056;2023-07-29T22:25:26;6.3;;;5.2;;
34146;SDS011;20423;49.448;9.056;2023-07-29T22:30:34;6.1;;;5;;
34146;SDS011;20423;49.448;9.056;2023-07-29T22:35:48;5.3;;;4.6;;
34146;SDS011;20423;49.448;9.056;2023-07-29T22:40:14;5.6;;;4.8;;
34146;SDS011;20423;49.448;9.056;2023-07-29T22:45:14;5.8;;;5.3;;
34146;SDS011;20423;49.448;9.056;2023-07-29T22:50:58;5.9;;;4.9;;
34146;SDS011;20423;49.448;9.056;2023-07-29T22:55:14;5.5;;;4.4;;
34146;SDS011;20423;49.448;9.056;2023-07-29T23:00:28;5.6;;;4.8;;
34146;SDS011;20423;49.448;9.056;2023-07-29T23:05:42;5.2;;;4.5;;
34146;SDS011;20423;49.448;9.056;2023-07-29T23:10:48;6.3;;;5;;
34146;SDS011;20423;49.448;9.056;2023-07-29T23:15:14;5.5;;;5.2;;
34146;SDS011;20423;49.448;9.056;2023-07-29T23:20:18;5.4;;;5;;
34146;SDS011;20423;49.448;9.056;2023-07-29T23:25:18;6.2;;;5.5;;
34146;SDS011;20423;49.448;9.056;2023-07-29T23:30:32;5.7;;;5.2;;
34146;SDS011;20423;49.448;9.056;2023-07-29T23:31:09;50.65;;;29.20;;
34146;SDS011;20423;49.448;9.056;2023-07-29T23:33:34;50.45;;;30.58;;
34146;SDS011;20423;49.448;9.056;2023-07-29T23:35:32;5.6;;;4.7;;
34146;SDS011;20423;49.448;9.056;2023-07-29T23:36:00;46.70;;;28.35;;
34146;SDS011;20423;49.448;9.056;2023-07-29T23:38:27;47.67;;;28.83;;
34146;SDS011;20423;49.448;9.056;2023-07-29T23:40:52;49.85;;;29.50;;
34146;SDS011;20423;49.448;9.056;2023-07-29T23:40:58;6.7;;;5.2;;
34146;SDS011;20423;49.448;9.056;2023-07-29T23:43:18;51.17;;;28.42;;
34146;SDS011;20423;49.448;9.056;2023-07-29T23:45:28;5.3;;;4.7;;
34146;SDS011;20423;49.448;9.056;2023-07-29T23:45:44;52.13;;;29.30;;
34146;SDS011;20423;49.448;9.056;2023-07-29T23:48:09;43.50;;;26.48;;
34146;SDS011;20423;49.448;9.056;2023-07-29T23:50:35;40.53;;;26.42;;
34146;SDS011;20423;49.448;9.056;2023-07-29T23:50:58;7.3;;;5.7;;
34146;SDS011;20423;49.448;9.056;2023-07-29T23:53:03;47.80;;;28.58;;
34146;SDS011;20423;49.448;9.056;2023-07-29T23:55:26;6.7;;;6.1;;
34146;SDS011;20423;49.448;9.056;2023-07-29T23:55:29;55.75;;;29.77;;
